sensor_id;sensor_type;location;lat;lon;timestamp;pressure;altitude;pressure_sealevel;temperature;humidity
42001;BME280;27689;48.390;10.856;2023-09-19T00:02:00;95839.31;;;16.31;100.00
42001;BME280;27689;48.390;10.856;2023-09-19T00:04:44;95832.94;;;16.25;100.00
42001;BME280;27689;48.390;10.856;2023-09-19T00:07:28;95829.66;;;16.23;100.00
42001;BME280;27689;48.390;10.856;2023-09-19T00:10:12;95832.50;;;16.21;100.00
42001;BME280;27689;48.390;10.856;2023-09-19T00:12:59;95834.56;;;16.26;100.00
42001;BME280;27689;48.390;10.856;2023-09-19T00:15:45;95835.50;;;16.18;100.00
42001;BME280;27689;48.390;10.856;2023-09-19T00:18:32;95836.22;;;16.27;100.00
42001;BME280;27689;48.390;10.856;2023-09-19T00:21:18;95834.03;;;16.31;100.00
42001;BME280;27689;48.390;10.856;2023-09-19T00:24:06;95830.28;;;16.25;100.00
42001;BME280;27689;48.390;10.856;2023-09-19T00:26:50;95827.72;;;16.10;100.00
42001;BME280;27689;48.390;10.856;2023-09-19T00:29:34;95848.03;;;16.10;100.00
42001;BME280;27689;48.390;10.856;2023-09-19T00:32:18;95846.28;;;16.17;100.00
42001;BME280;27689;48.390;10.856;2023-09-19T00:35:03;95858.78;;;16.08;100.00
42001;BME280;27689;48.390;10.856;2023-09-19T00:37:47;95860.28;;;15.96;100.00
42001;BME280;27689;48.390;10.856;2023-09-19T00:40:31;95857.69;;;16.03;100.00
42001;BME280;27689;48.390;10.856;2023-09-19T00:43:16;95870.13;;;16.02;100.00
42001;BME280;27689;48.390;10.856;2023-09-19T00:46:01;95863.81;;;16.03;100.00
42001;BME280;27689;48.390;10.856;2023-09-19T00:48:46;95852.81;;;16.00;100.00
42001;BME280;27689;48.390;10.856;2023-09-19T00:51:30;95854.06;;;16.04;100.00
42001;BME280;27689;48.390;10.856;2023-09-19T00:54:15;95857.34;;;16.06;100.00
42001;BME280;27689;48.390;10.856;2023-09-19T00:57:02;95870.31;;;16.22;100.00
42001;BME280;27689;48.390;10.856;2023-09-19T00:59:46;95875.47;;;16.09;100.00
42001;BME280;27689;48.390;10.856;2023-09-19T01:02:32;95870.53;;;16.06;100.00
42001;BME280;27689;48.390;10.856;2023-09-19T01:05:16;95864.44;;;16.05;100.00
42001;BME280;27689;48.390;10.856;2023-09-19T01:08:01;95860.44;;;16.09;100.00
42001;BME280;27689;48.390;10.856;2023-09-19T01:11:00;95866.72;;;16.08;100.00
42001;BME280;27689;48.390;10.856;2023-09-19T01:17:02;95860.44;;;16.09;100.00
42001;BME280;27689;48.390;10.856;2023-09-19T01:23:00;95865.72;;;16.09;100.00
42001;BME280;27689;48.390;10.856;2023-09-19T01:28:55;95866.53;;;16.10;100.00
42001;BME280;27689;48.390;10.856;2023-09-19T01:31:42;95874.47;;;16.10;100.00
42001;BME280;27689;48.390;10.856;2023-09-19T01:34:26;95872.63;;;16.10;100.00
42001;BME280;27689;48.390;10.856;2023-09-19T01:37:10;95876.66;;;16.06;100.00
42001;BME280;27689;48.390;10.856;2023-09-19T01:40:01;95880.75;;;16.09;100.00
42001;BME280;27689;48.390;10.856;2023-09-19T01:43:09;95875.09;;;16.12;100.00
42001;BME280;27689;48.390;10.856;2023-09-19T01:46:24;95880.09;;;16.07;100.00
42001;BME280;27689;48.390;10.856;2023-09-19T01:49:26;95876.19;;;16.03;100.00
42001;BME280;27689;48.390;10.856;2023-09-19T01:52:12;95890.22;;;16.03;100.00
42001;BME280;27689;48.390;10.856;2023-09-19T01:55:06;95882.13;;;16.05;100.00
42001;BME280;27689;48.390;10.856;2023-09-19T02:01:08;95884.75;;;16.05;100.00
42001;BME280;27689;48.390;10.856;2023-09-19T02:03:54;95874.78;;;16.00;100.00
42001;BME280;27689;48.390;10.856;2023-09-19T02:06:41;95887.78;;;16.02;100.00
42001;BME280;27689;48.390;10.856;2023-09-19T02:09:26;95895.44;;;15.97;100.00
42001;BME280;27689;48.390;10.856;2023-09-19T02:12:10;95894.81;;;15.95;100.00
42001;BME280;27689;48.390;10.856;2023-09-19T02:14:54;95887.88;;;15.94;100.00
42001;BME280;27689;48.390;10.856;2023-09-19T02:17:38;95898.09;;;15.97;100.00
42001;BME280;27689;48.390;10.856;2023-09-19T02:20:22;95894.81;;;15.95;100.00
42001;BME280;27689;48.390;10.856;2023-09-19T02:23:07;95897.81;;;15.92;100.00
42001;BME280;27689;48.390;10.856;2023-09-19T02:25:54;95903.09;;;15.92;100.00
42001;BME280;27689;48.390;10.856;2023-09-19T02:28:40;95902.94;;;15.93;100.00
42001;BME280;27689;48.390;10.856;2023-09-19T02:31:24;95897.00;;;15.91;100.00
42001;BME280;27689;48.390;10.856;2023-09-19T02:34:08;95906.09;;;15.88;100.00
42001;BME280;27689;48.390;10.856;2023-09-19T02:36:52;95898.56;;;15.85;100.00
42001;BME280;27689;48.390;10.856;2023-09-19T02:39:38;95910.84;;;15.93;100.00
42001;BME280;27689;48.390;10.856;2023-09-19T02:42:23;95894.34;;;15.91;100.00
42001;BME280;27689;48.390;10.856;2023-09-19T02:45:07;95906.19;;;15.95;100.00
42001;BME280;27689;48.390;10.856;2023-09-19T02:47:52;95913.31;;;15.95;100.00
42001;BME280;27689;48.390;10.856;2023-09-19T02:50:35;95912.84;;;15.91;100.00
42001;BME280;27689;48.390;10.856;2023-09-19T02:53:19;95915.94;;;15.95;100.00
42001;BME280;27689;48.390;10.856;2023-09-19T02:56:03;95916.59;;;15.97;100.00
42001;BME280;27689;48.390;10.856;2023-09-19T02:58:48;95920.13;;;16.04;100.00
42001;BME280;27689;48.390;10.856;2023-09-19T03:01:32;95920.50;;;16.01;100.00
42001;BME280;27689;48.390;10.856;2023-09-19T03:04:17;95927.03;;;16.05;100.00
42001;BME280;27689;48.390;10.856;2023-09-19T03:07:03;95926.41;;;16.03;100.00
42001;BME280;27689;48.390;10.856;2023-09-19T03:09:47;95923.41;;;16.06;100.00
42001;BME280;27689;48.390;10.856;2023-09-19T03:12:32;95927.69;;;16.07;100.00
42001;BME280;27689;48.390;10.856;2023-09-19T03:15:17;95925.41;;;16.04;100.00
42001;BME280;27689;48.390;10.856;2023-09-19T03:18:02;95921.50;;;16.00;100.00
42001;BME280;27689;48.390;10.856;2023-09-19T03:20:53;95931.81;;;15.95;100.00
42001;BME280;27689;48.390;10.856;2023-09-19T03:23:38;95933.25;;;15.97;100.00
42001;BME280;27689;48.390;10.856;2023-09-19T03:26:23;95935.44;;;15.94;100.00
42001;BME280;27689;48.390;10.856;2023-09-19T03:29:06;95931.25;;;15.99;100.00
42001;BME280;27689;48.390;10.856;2023-09-19T03:31:50;95934.09;;;15.98;100.00
42001;BME280;27689;48.390;10.856;2023-09-19T03:34:36;95927.63;;;16.00;100.00
42001;BME280;27689;48.390;10.856;2023-09-19T03:37:21;95937.25;;;16.08;100.00
42001;BME280;27689;48.390;10.856;2023-09-19T03:40:05;95938.88;;;16.09;100.00
42001;BME280;27689;48.390;10.856;2023-09-19T03:42:49;95933.25;;;16.12;100.00
42001;BME280;27689;48.390;10.856;2023-09-19T03:45:33;95939.63;;;16.03;100.00
42001;BME280;27689;48.390;10.856;2023-09-19T03:48:17;95930.97;;;16.09;100.00
42001;BME280;27689;48.390;10.856;2023-09-19T03:51:01;95936.53;;;16.14;100.00
42001;BME280;27689;48.390;10.856;2023-09-19T03:53:46;95940.34;;;16.11;100.00
42001;BME280;27689;48.390;10.856;2023-09-19T03:56:30;95933.16;;;16.05;100.00
42001;BME280;27689;48.390;10.856;2023-09-19T03:59:15;95937.72;;;16.11;100.00
42001;BME280;27689;48.390;10.856;2023-09-19T04:01:59;95948.63;;;16.08;100.00
42001;BME280;27689;48.390;10.856;2023-09-19T04:04:43;95947.19;;;16.06;100.00
42001;BME280;27689;48.390;10.856;2023-09-19T04:07:27;95948.00;;;16.06;100.00
42001;BME280;27689;48.390;10.856;2023-09-19T04:10:12;95947.63;;;16.09;100.00
42001;BME280;27689;48.390;10.856;2023-09-19T04:12:58;95947.81;;;16.08;100.00
42001;BME280;27689;48.390;10.856;2023-09-19T04:15:42;95949.66;;;16.07;100.00
42001;BME280;27689;48.390;10.856;2023-09-19T04:18:26;95949.66;;;16.07;100.00
42001;BME280;27689;48.390;10.856;2023-09-19T04:21:10;95950.19;;;16.03;100.00
42001;BME280;27689;48.390;10.856;2023-09-19T04:23:54;95958.03;;;16.11;100.00
42001;BME280;27689;48.390;10.856;2023-09-19T04:26:38;95963.59;;;16.16;100.00
42001;BME280;27689;48.390;10.856;2023-09-19T04:29:22;95963.31;;;16.11;100.00
42001;BME280;27689;48.390;10.856;2023-09-19T04:32:06;95964.94;;;16.12;100.00
42001;BME280;27689;48.390;10.856;2023-09-19T04:34:51;95971.88;;;16.13;100.00
42001;BME280;27689;48.390;10.856;2023-09-19T04:37:38;95978.34;;;16.10;100.00
42001;BME280;27689;48.390;10.856;2023-09-19T04:40:23;95976.25;;;16.06;100.00
42001;BME280;27689;48.390;10.856;2023-09-19T04:43:10;95980.34;;;16.08;100.00
42001;BME280;27689;48.390;10.856;2023-09-19T04:45:54;95973.69;;;16.12;100.00
42001;BME280;27689;48.390;10.856;2023-09-19T04:48:39;95983.91;;;16.15;100.00
42001;BME280;27689;48.390;10.856;2023-09-19T04:51:24;95975.88;;;16.09;100.00
42001;BME280;27689;48.390;10.856;2023-09-19T04:54:09;95994.03;;;16.12;100.00
42001;BME280;27689;48.390;10.856;2023-09-19T04:56:54;95997.56;;;16.04;100.00
42001;BME280;27689;48.390;10.856;2023-09-19T04:59:38;95994.09;;;16.04;100.00
42001;BME280;27689;48.390;10.856;2023-09-19T05:02:22;96004.88;;;16.02;100.00
42001;BME280;27689;48.390;10.856;2023-09-19T05:05:07;96002.44;;;16.01;100.00
42001;BME280;27689;48.390;10.856;2023-09-19T05:07:52;96001.31;;;15.95;100.00
42001;BME280;27689;48.390;10.856;2023-09-19T05:10:39;96005.50;;;15.90;100.00
42001;BME280;27689;48.390;10.856;2023-09-19T05:13:23;95997.56;;;15.90;100.00
42001;BME280;27689;48.390;10.856;2023-09-19T05:16:08;95999.16;;;15.84;100.00
42001;BME280;27689;48.390;10.856;2023-09-19T05:18:53;96012.19;;;15.85;100.00
42001;BME280;27689;48.390;10.856;2023-09-19T05:21:37;96010.78;;;15.90;100.00
42001;BME280;27689;48.390;10.856;2023-09-19T05:24:22;96013.59;;;15.88;100.00
42001;BME280;27689;48.390;10.856;2023-09-19T05:27:07;96019.53;;;15.90;100.00
42001;BME280;27689;48.390;10.856;2023-09-19T05:29:51;96019.34;;;15.92;100.00
42001;BME280;27689;48.390;10.856;2023-09-19T05:32:36;96018.19;;;15.94;100.00
42001;BME280;27689;48.390;10.856;2023-09-19T05:35:20;96017.47;;;16.00;100.00
42001;BME280;27689;48.390;10.856;2023-09-19T05:38:08;96020.63;;;15.96;100.00
42001;BME280;27689;48.390;10.856;2023-09-19T05:40:56;96035.97;;;16.00;100.00
42001;BME280;27689;48.390;10.856;2023-09-19T05:43:40;96030.09;;;16.05;100.00
42001;BME280;27689;48.390;10.856;2023-09-19T05:46:24;96039.31;;;16.09;100.00
42001;BME280;27689;48.390;10.856;2023-09-19T05:49:13;96035.50;;;16.11;100.00
42001;BME280;27689;48.390;10.856;2023-09-19T05:51:57;96029.38;;;16.11;100.00
42001;BME280;27689;48.390;10.856;2023-09-19T05:54:42;96029.56;;;16.09;100.00
42001;BME280;27689;48.390;10.856;2023-09-19T05:57:26;96037.38;;;16.03;100.00
42001;BME280;27689;48.390;10.856;2023-09-19T06:00:14;96036.22;;;16.05;100.00
42001;BME280;27689;48.390;10.856;2023-09-19T06:02:59;96037.69;;;16.08;100.00
42001;BME280;27689;48.390;10.856;2023-09-19T06:05:43;96042.97;;;16.08;100.00
42001;BME280;27689;48.390;10.856;2023-09-19T06:08:27;96042.31;;;16.20;100.00
42001;BME280;27689;48.390;10.856;2023-09-19T06:11:12;96047.69;;;16.27;100.00
42001;BME280;27689;48.390;10.856;2023-09-19T06:13:56;96042.22;;;16.29;100.00
42001;BME280;27689;48.390;10.856;2023-09-19T06:16:40;96048.59;;;16.34;100.00
42001;BME280;27689;48.390;10.856;2023-09-19T06:19:26;96049.22;;;16.36;100.00
42001;BME280;27689;48.390;10.856;2023-09-19T06:22:10;96049.16;;;16.44;100.00
42001;BME280;27689;48.390;10.856;2023-09-19T06:24:54;96058.72;;;16.45;100.00
42001;BME280;27689;48.390;10.856;2023-09-19T06:27:39;96066.91;;;16.50;100.00
42001;BME280;27689;48.390;10.856;2023-09-19T06:30:26;96059.59;;;16.52;100.00
42001;BME280;27689;48.390;10.856;2023-09-19T06:33:10;96060.44;;;16.53;100.00
42001;BME280;27689;48.390;10.856;2023-09-19T06:35:56;96066.72;;;16.52;100.00
42001;BME280;27689;48.390;10.856;2023-09-19T06:38:43;96066.09;;;16.65;100.00
42001;BME280;27689;48.390;10.856;2023-09-19T06:41:27;96064.00;;;16.60;100.00
42001;BME280;27689;48.390;10.856;2023-09-19T06:44:13;96064.59;;;16.62;100.00
42001;BME280;27689;48.390;10.856;2023-09-19T06:46:57;96074.22;;;16.63;100.00
42001;BME280;27689;48.390;10.856;2023-09-19T06:49:42;96071.56;;;16.63;100.00
42001;BME280;27689;48.390;10.856;2023-09-19T06:52:29;96069.72;;;16.64;100.00
42001;BME280;27689;48.390;10.856;2023-09-19T06:55:13;96072.94;;;16.74;100.00
42001;BME280;27689;48.390;10.856;2023-09-19T06:58:00;96068.69;;;16.79;100.00
42001;BME280;27689;48.390;10.856;2023-09-19T07:00:44;96079.38;;;16.86;100.00
42001;BME280;27689;48.390;10.856;2023-09-19T07:03:28;96080.84;;;16.88;100.00
42001;BME280;27689;48.390;10.856;2023-09-19T07:06:12;96082.91;;;16.93;100.00
42001;BME280;27689;48.390;10.856;2023-09-19T07:08:56;96081.66;;;16.89;100.00
42001;BME280;27689;48.390;10.856;2023-09-19T07:11:40;96097.25;;;16.84;100.00
42001;BME280;27689;48.390;10.856;2023-09-19T07:14:25;96097.94;;;16.92;100.00
42001;BME280;27689;48.390;10.856;2023-09-19T07:17:08;96097.72;;;16.87;100.00
42001;BME280;27689;48.390;10.856;2023-09-19T07:19:53;96104.28;;;16.91;100.00
42001;BME280;27689;48.390;10.856;2023-09-19T07:22:37;96105.97;;;16.99;100.00
42001;BME280;27689;48.390;10.856;2023-09-19T07:25:23;96097.09;;;17.07;100.00
42001;BME280;27689;48.390;10.856;2023-09-19T07:28:07;96094.66;;;17.05;100.00
42001;BME280;27689;48.390;10.856;2023-09-19T07:30:51;96098.81;;;17.14;100.00
42001;BME280;27689;48.390;10.856;2023-09-19T07:33:36;96091.00;;;17.27;100.00
42001;BME280;27689;48.390;10.856;2023-09-19T07:36:20;96094.56;;;17.35;100.00
42001;BME280;27689;48.390;10.856;2023-09-19T07:39:05;96093.72;;;17.34;100.00
42001;BME280;27689;48.390;10.856;2023-09-19T07:41:50;96087.47;;;17.42;100.00
42001;BME280;27689;48.390;10.856;2023-09-19T07:44:37;96093.06;;;17.53;100.00
42001;BME280;27689;48.390;10.856;2023-09-19T07:47:22;96099.91;;;17.62;100.00
42001;BME280;27689;48.390;10.856;2023-09-19T07:50:06;96100.41;;;17.73;100.00
42001;BME280;27689;48.390;10.856;2023-09-19T07:52:52;96101.88;;;17.75;100.00
42001;BME280;27689;48.390;10.856;2023-09-19T07:55:37;96110.09;;;17.87;100.00
42001;BME280;27689;48.390;10.856;2023-09-19T07:58:21;96113.66;;;17.94;100.00
42001;BME280;27689;48.390;10.856;2023-09-19T08:01:07;96109.06;;;18.09;100.00
42001;BME280;27689;48.390;10.856;2023-09-19T08:03:52;96113.81;;;18.20;100.00
42001;BME280;27689;48.390;10.856;2023-09-19T08:06:36;96117.75;;;18.31;98.77
42001;BME280;27689;48.390;10.856;2023-09-19T08:09:22;96104.34;;;18.39;97.41
42001;BME280;27689;48.390;10.856;2023-09-19T08:12:07;96113.34;;;18.45;97.16
42001;BME280;27689;48.390;10.856;2023-09-19T08:14:54;96110.97;;;18.56;97.88
42001;BME280;27689;48.390;10.856;2023-09-19T08:17:39;96126.44;;;18.81;95.34
42001;BME280;27689;48.390;10.856;2023-09-19T08:20:23;96115.06;;;19.00;95.16
42001;BME280;27689;48.390;10.856;2023-09-19T08:23:07;96115.31;;;19.18;93.29
42001;BME280;27689;48.390;10.856;2023-09-19T08:25:56;96115.97;;;19.27;92.75
42001;BME280;27689;48.390;10.856;2023-09-19T08:28:41;96122.94;;;19.34;91.70
42001;BME280;27689;48.390;10.856;2023-09-19T08:31:25;96125.19;;;19.37;90.83
42001;BME280;27689;48.390;10.856;2023-09-19T08:34:10;96129.25;;;19.33;90.73
42001;BME280;27689;48.390;10.856;2023-09-19T08:36:54;96128.06;;;19.43;87.03
42001;BME280;27689;48.390;10.856;2023-09-19T08:39:41;96118.25;;;19.43;87.05
42001;BME280;27689;48.390;10.856;2023-09-19T08:42:26;96120.16;;;19.56;87.86
42001;BME280;27689;48.390;10.856;2023-09-19T08:45:10;96119.53;;;19.80;87.96
42001;BME280;27689;48.390;10.856;2023-09-19T08:48:25;96122.00;;;20.15;83.30
42001;BME280;27689;48.390;10.856;2023-09-19T08:51:18;96126.47;;;20.27;78.84
42001;BME280;27689;48.390;10.856;2023-09-19T08:54:08;96121.78;;;20.42;78.93
42001;BME280;27689;48.390;10.856;2023-09-19T08:57:00;96127.44;;;20.72;79.78
42001;BME280;27689;48.390;10.856;2023-09-19T08:59:46;96123.91;;;20.85;76.38
42001;BME280;27689;48.390;10.856;2023-09-19T09:02:32;96126.84;;;20.70;76.94
42001;BME280;27689;48.390;10.856;2023-09-19T09:05:18;96126.84;;;20.64;78.20
42001;BME280;27689;48.390;10.856;2023-09-19T09:08:06;96125.19;;;20.63;79.26
42001;BME280;27689;48.390;10.856;2023-09-19T09:10:51;96134.84;;;20.57;77.73
42001;BME280;27689;48.390;10.856;2023-09-19T09:13:36;96127.22;;;20.74;77.81
42001;BME280;27689;48.390;10.856;2023-09-19T09:16:20;96137.88;;;20.74;75.61
42001;BME280;27689;48.390;10.856;2023-09-19T09:19:04;96132.09;;;20.84;75.85
42001;BME280;27689;48.390;10.856;2023-09-19T09:21:48;96138.44;;;20.89;76.25
42001;BME280;27689;48.390;10.856;2023-09-19T09:24:32;96146.72;;;20.61;72.36
42001;BME280;27689;48.390;10.856;2023-09-19T09:27:21;96155.94;;;20.59;74.84
42001;BME280;27689;48.390;10.856;2023-09-19T09:30:08;96156.16;;;20.57;74.72
42001;BME280;27689;48.390;10.856;2023-09-19T09:33:07;96146.94;;;20.53;73.07
42001;BME280;27689;48.390;10.856;2023-09-19T09:35:59;96148.94;;;20.64;74.06
42001;BME280;27689;48.390;10.856;2023-09-19T09:38:46;96144.25;;;20.66;76.02
42001;BME280;27689;48.390;10.856;2023-09-19T09:41:38;96163.09;;;20.65;73.05
42001;BME280;27689;48.390;10.856;2023-09-19T09:44:23;96153.09;;;20.60;72.21
42001;BME280;27689;48.390;10.856;2023-09-19T09:47:08;96152.03;;;20.68;71.87
42001;BME280;27689;48.390;10.856;2023-09-19T09:50:10;96163.03;;;20.91;72.17
42001;BME280;27689;48.390;10.856;2023-09-19T09:53:01;96160.94;;;20.93;71.97
42001;BME280;27689;48.390;10.856;2023-09-19T09:56:02;96156.44;;;20.94;72.67
42001;BME280;27689;48.390;10.856;2023-09-19T09:58:50;96163.88;;;20.85;71.38
42001;BME280;27689;48.390;10.856;2023-09-19T10:01:48;96169.41;;;20.84;70.17
42001;BME280;27689;48.390;10.856;2023-09-19T10:04:37;96161.19;;;20.92;69.96
42001;BME280;27689;48.390;10.856;2023-09-19T10:07:30;96169.34;;;20.97;70.74
42001;BME280;27689;48.390;10.856;2023-09-19T10:10:34;96159.88;;;21.14;69.76
42001;BME280;27689;48.390;10.856;2023-09-19T10:13:26;96159.00;;;21.33;70.34
42001;BME280;27689;48.390;10.856;2023-09-19T10:16:13;96165.06;;;21.47;70.92
42001;BME280;27689;48.390;10.856;2023-09-19T10:19:01;96157.63;;;21.56;66.78
42001;BME280;27689;48.390;10.856;2023-09-19T10:21:46;96159.56;;;21.73;67.20
42001;BME280;27689;48.390;10.856;2023-09-19T10:24:33;96163.16;;;21.92;66.26
42001;BME280;27689;48.390;10.856;2023-09-19T10:27:20;96168.13;;;22.13;65.61
42001;BME280;27689;48.390;10.856;2023-09-19T10:30:06;96157.66;;;22.12;64.37
42001;BME280;27689;48.390;10.856;2023-09-19T10:33:03;96149.59;;;21.94;62.60
42001;BME280;27689;48.390;10.856;2023-09-19T10:35:49;96158.59;;;21.99;63.71
42001;BME280;27689;48.390;10.856;2023-09-19T10:38:36;96163.94;;;21.99;62.16
42001;BME280;27689;48.390;10.856;2023-09-19T10:41:24;96171.41;;;21.84;65.19
42001;BME280;27689;48.390;10.856;2023-09-19T10:44:09;96164.50;;;21.70;63.93
42001;BME280;27689;48.390;10.856;2023-09-19T10:46:53;96173.31;;;21.77;64.16
42001;BME280;27689;48.390;10.856;2023-09-19T10:49:44;96171.97;;;21.61;65.10
42001;BME280;27689;48.390;10.856;2023-09-19T10:52:33;96180.91;;;21.73;68.58
42001;BME280;27689;48.390;10.856;2023-09-19T10:55:19;96172.19;;;21.91;69.71
42001;BME280;27689;48.390;10.856;2023-09-19T10:58:08;96172.19;;;21.91;71.29
42001;BME280;27689;48.390;10.856;2023-09-19T11:00:59;96174.75;;;21.73;71.75
42001;BME280;27689;48.390;10.856;2023-09-19T11:07:12;96176.44;;;21.29;73.64
42001;BME280;27689;48.390;10.856;2023-09-19T11:09:58;96172.94;;;21.29;71.02
42001;BME280;27689;48.390;10.856;2023-09-19T11:24:27;96183.38;;;20.20;76.64
42001;BME280;27689;48.390;10.856;2023-09-19T11:27:15;96191.78;;;20.10;77.52
42001;BME280;27689;48.390;10.856;2023-09-19T11:30:26;96194.00;;;19.80;80.70
42001;BME280;27689;48.390;10.856;2023-09-19T11:33:29;96193.16;;;19.66;81.71
42001;BME280;27689;48.390;10.856;2023-09-19T11:36:36;96192.31;;;19.53;83.35
42001;BME280;27689;48.390;10.856;2023-09-19T11:39:26;96193.13;;;19.60;84.04
42001;BME280;27689;48.390;10.856;2023-09-19T11:42:43;96192.38;;;19.92;85.44
42001;BME280;27689;48.390;10.856;2023-09-19T11:48:24;96190.34;;;20.01;84.73
42001;BME280;27689;48.390;10.856;2023-09-19T11:51:11;96184.00;;;20.48;82.60
42001;BME280;27689;48.390;10.856;2023-09-19T11:54:03;96178.00;;;20.86;79.93
42001;BME280;27689;48.390;10.856;2023-09-19T11:56:49;96170.16;;;20.97;75.02
42001;BME280;27689;48.390;10.856;2023-09-19T11:59:38;96170.94;;;21.11;75.34
42001;BME280;27689;48.390;10.856;2023-09-19T12:02:46;96159.31;;;21.50;73.58
42001;BME280;27689;48.390;10.856;2023-09-19T12:05:30;96161.81;;;21.76;73.10
42001;BME280;27689;48.390;10.856;2023-09-19T12:08:17;96157.25;;;21.83;69.86
42001;BME280;27689;48.390;10.856;2023-09-19T12:11:05;96149.56;;;22.00;68.21
42001;BME280;27689;48.390;10.856;2023-09-19T12:13:51;96157.59;;;22.25;69.38
42001;BME280;27689;48.390;10.856;2023-09-19T12:16:37;96152.25;;;22.43;65.27
42001;BME280;27689;48.390;10.856;2023-09-19T12:19:22;96145.06;;;22.44;64.92
42001;BME280;27689;48.390;10.856;2023-09-19T12:22:07;96137.97;;;22.56;65.01
42001;BME280;27689;48.390;10.856;2023-09-19T12:24:53;96145.16;;;22.74;61.66
42001;BME280;27689;48.390;10.856;2023-09-19T12:27:46;96134.19;;;22.64;58.75
42001;BME280;27689;48.390;10.856;2023-09-19T12:30:30;96135.31;;;22.74;59.60
42001;BME280;27689;48.390;10.856;2023-09-19T12:33:20;96127.28;;;22.74;59.71
42001;BME280;27689;48.390;10.856;2023-09-19T12:36:22;96137.72;;;22.82;55.03
42001;BME280;27689;48.390;10.856;2023-09-19T12:39:23;96127.84;;;22.83;55.84
42001;BME280;27689;48.390;10.856;2023-09-19T12:42:10;96131.53;;;23.00;57.50
42001;BME280;27689;48.390;10.856;2023-09-19T12:44:54;96128.00;;;23.36;57.84
42001;BME280;27689;48.390;10.856;2023-09-19T12:47:40;96123.72;;;23.47;54.07
42001;BME280;27689;48.390;10.856;2023-09-19T12:50:27;96135.00;;;23.37;56.02
42001;BME280;27689;48.390;10.856;2023-09-19T12:53:25;96130.25;;;23.21;56.45
42001;BME280;27689;48.390;10.856;2023-09-19T12:56:11;96128.81;;;22.89;57.35
42001;BME280;27689;48.390;10.856;2023-09-19T12:58:58;96126.44;;;22.80;57.03
42001;BME280;27689;48.390;10.856;2023-09-19T13:02:03;96129.47;;;22.41;56.76
42001;BME280;27689;48.390;10.856;2023-09-19T13:04:54;96124.59;;;22.38;57.25
42001;BME280;27689;48.390;10.856;2023-09-19T13:07:42;96116.84;;;22.55;58.29
42001;BME280;27689;48.390;10.856;2023-09-19T13:10:27;96112.31;;;22.55;57.65
42001;BME280;27689;48.390;10.856;2023-09-19T13:13:24;96110.44;;;22.74;57.39
42001;BME280;27689;48.390;10.856;2023-09-19T13:16:11;96108.84;;;22.91;57.18
42001;BME280;27689;48.390;10.856;2023-09-19T13:18:58;96107.41;;;23.07;56.45
42001;BME280;27689;48.390;10.856;2023-09-19T13:21:42;96105.59;;;23.19;55.78
42001;BME280;27689;48.390;10.856;2023-09-19T13:24:33;96108.31;;;23.01;56.54
42001;BME280;27689;48.390;10.856;2023-09-19T13:27:18;96108.78;;;22.79;56.69
42001;BME280;27689;48.390;10.856;2023-09-19T13:30:03;96095.25;;;22.93;57.10
42001;BME280;27689;48.390;10.856;2023-09-19T13:32:49;96102.66;;;23.09;58.10
42001;BME280;27689;48.390;10.856;2023-09-19T13:35:33;96097.28;;;22.97;56.97
42001;BME280;27689;48.390;10.856;2023-09-19T13:38:17;96096.75;;;22.89;57.02
42001;BME280;27689;48.390;10.856;2023-09-19T13:41:02;96102.78;;;22.84;56.76
42001;BME280;27689;48.390;10.856;2023-09-19T13:43:46;96096.84;;;22.82;58.06
42001;BME280;27689;48.390;10.856;2023-09-19T13:46:32;96086.50;;;22.67;57.90
42001;BME280;27689;48.390;10.856;2023-09-19T13:49:18;96084.34;;;22.76;58.11
42001;BME280;27689;48.390;10.856;2023-09-19T13:52:02;96087.31;;;22.86;56.81
42001;BME280;27689;48.390;10.856;2023-09-19T13:54:56;96089.31;;;22.91;57.72
42001;BME280;27689;48.390;10.856;2023-09-19T13:57:40;96081.75;;;22.88;57.09
42001;BME280;27689;48.390;10.856;2023-09-19T14:00:24;96083.03;;;22.85;58.36
42001;BME280;27689;48.390;10.856;2023-09-19T14:03:08;96078.63;;;22.91;57.24
42001;BME280;27689;48.390;10.856;2023-09-19T14:05:54;96074.78;;;22.86;57.32
42001;BME280;27689;48.390;10.856;2023-09-19T14:08:38;96066.63;;;22.63;58.44
42001;BME280;27689;48.390;10.856;2023-09-19T14:11:23;96068.50;;;22.81;59.01
42001;BME280;27689;48.390;10.856;2023-09-19T14:14:06;96062.81;;;22.89;56.87
42001;BME280;27689;48.390;10.856;2023-09-19T14:16:51;96068.88;;;22.84;58.57
42001;BME280;27689;48.390;10.856;2023-09-19T14:19:41;96063.81;;;22.76;58.14
42001;BME280;27689;48.390;10.856;2023-09-19T14:22:25;96050.53;;;22.70;58.72
42001;BME280;27689;48.390;10.856;2023-09-19T14:25:09;96056.81;;;22.75;58.00
42001;BME280;27689;48.390;10.856;2023-09-19T14:27:53;96065.63;;;22.76;58.02
42001;BME280;27689;48.390;10.856;2023-09-19T14:30:37;96057.34;;;22.66;58.60
42001;BME280;27689;48.390;10.856;2023-09-19T14:33:22;96055.34;;;22.61;58.02
42001;BME280;27689;48.390;10.856;2023-09-19T14:36:09;96055.72;;;22.46;58.23
42001;BME280;27689;48.390;10.856;2023-09-19T14:38:55;96056.88;;;22.32;58.05
42001;BME280;27689;48.390;10.856;2023-09-19T14:41:39;96042.94;;;22.30;56.82
42001;BME280;27689;48.390;10.856;2023-09-19T14:44:23;96044.28;;;22.21;57.77
42001;BME280;27689;48.390;10.856;2023-09-19T14:47:07;96039.00;;;22.14;57.45
42001;BME280;27689;48.390;10.856;2023-09-19T14:49:51;96039.34;;;22.00;57.40
42001;BME280;27689;48.390;10.856;2023-09-19T14:52:35;96040.50;;;22.10;59.66
42001;BME280;27689;48.390;10.856;2023-09-19T14:55:20;96040.03;;;22.13;58.09
42001;BME280;27689;48.390;10.856;2023-09-19T14:58:03;96044.28;;;22.21;57.27